sensor_id;sensor_type;location;lat;lon;timestamp;temperature;humidity
11836;DHT22;5977;51.972;7.640;2023-02-15T00:02:04;16.90;68.10
11836;DHT22;5977;51.972;7.640;2023-02-15T00:04:32;16.90;68.10
11836;DHT22;5977;51.972;7.640;2023-02-15T00:07:16;16.90;68.10
11836;DHT22;5977;51.972;7.640;2023-02-15T00:09:45;16.90;68.20
11836;DHT22;5977;51.972;7.640;2023-02-15T00:12:14;16.90;68.10
11836;DHT22;5977;51.972;7.640;2023-02-15T00:14:42;16.90;68.20
11836;DHT22;5977;51.972;7.640;2023-02-15T00:17:10;16.90;68.20
11836;DHT22;5977;51.972;7.640;2023-02-15T00:19:38;16.90;68.20
11836;DHT22;5977;51.972;7.640;2023-02-15T00:22:07;16.80;68.20
11836;DHT22;5977;51.972;7.640;2023-02-15T00:24:36;16.90;68.20
11836;DHT22;5977;51.972;7.640;2023-02-15T00:27:04;16.90;68.20
11836;DHT22;5977;51.972;7.640;2023-02-15T00:29:32;16.90;68.30
11836;DHT22;5977;51.972;7.640;2023-02-15T00:32:00;16.90;68.30
11836;DHT22;5977;51.972;7.640;2023-02-15T00:34:28;16.90;68.20
11836;DHT22;5977;51.972;7.640;2023-02-15T00:36:56;16.90;68.20
11836;DHT22;5977;51.972;7.640;2023-02-15T00:39:24;16.90;68.30
11836;DHT22;5977;51.972;7.640;2023-02-15T00:41:55;16.90;68.30
11836;DHT22;5977;51.972;7.640;2023-02-15T00:44:22;16.90;68.30
11836;DHT22;5977;51.972;7.640;2023-02-15T00:46:50;16.90;68.30
11836;DHT22;5977;51.972;7.640;2023-02-15T00:49:20;16.80;68.30
11836;DHT22;5977;51.972;7.640;2023-02-15T00:51:47;16.80;68.20
11836;DHT22;5977;51.972;7.640;2023-02-15T00:54:15;16.90;68.30
11836;DHT22;5977;51.972;7.640;2023-02-15T00:56:43;16.80;68.30
11836;DHT22;5977;51.972;7.640;2023-02-15T00:59:13;16.80;68.30
11836;DHT22;5977;51.972;7.640;2023-02-15T01:01:40;16.80;68.30
11836;DHT22;5977;51.972;7.640;2023-02-15T01:04:08;16.80;68.30
11836;DHT22;5977;51.972;7.640;2023-02-15T01:06:36;16.80;68.30
11836;DHT22;5977;51.972;7.640;2023-02-15T01:09:04;16.80;68.40
11836;DHT22;5977;51.972;7.640;2023-02-15T01:11:32;16.80;68.30
11836;DHT22;5977;51.972;7.640;2023-02-15T01:14:00;16.80;68.30
11836;DHT22;5977;51.972;7.640;2023-02-15T01:16:31;16.80;68.30
11836;DHT22;5977;51.972;7.640;2023-02-15T01:18:59;16.80;68.30
11836;DHT22;5977;51.972;7.640;2023-02-15T01:21:30;16.80;68.40
11836;DHT22;5977;51.972;7.640;2023-02-15T01:24:02;16.80;68.40
11836;DHT22;5977;51.972;7.640;2023-02-15T01:26:29;16.80;68.40
11836;DHT22;5977;51.972;7.640;2023-02-15T01:28:58;16.80;68.40
11836;DHT22;5977;51.972;7.640;2023-02-15T01:31:25;16.80;68.40
11836;DHT22;5977;51.972;7.640;2023-02-15T01:33:55;16.80;68.40
11836;DHT22;5977;51.972;7.640;2023-02-15T01:36:23;16.80;68.40
11836;DHT22;5977;51.972;7.640;2023-02-15T01:38:51;16.80;68.40
11836;DHT22;5977;51.972;7.640;2023-02-15T01:41:19;16.80;68.40
11836;DHT22;5977;51.972;7.640;2023-02-15T01:43:55;16.80;68.50
11836;DHT22;5977;51.972;7.640;2023-02-15T01:46:27;16.80;68.40
11836;DHT22;5977;51.972;7.640;2023-02-15T01:49:03;16.80;68.40
11836;DHT22;5977;51.972;7.640;2023-02-15T01:51:33;16.80;68.40
11836;DHT22;5977;51.972;7.640;2023-02-15T01:54:07;16.80;68.50
11836;DHT22;5977;51.972;7.640;2023-02-15T01:56:37;16.70;68.40
11836;DHT22;5977;51.972;7.640;2023-02-15T01:59:08;16.80;68.50
11836;DHT22;5977;51.972;7.640;2023-02-15T02:01:37;16.80;68.50
11836;DHT22;5977;51.972;7.640;2023-02-15T02:04:10;16.80;68.50
11836;DHT22;5977;51.972;7.640;2023-02-15T02:06:40;16.80;68.50
11836;DHT22;5977;51.972;7.640;2023-02-15T02:09:08;16.70;68.50
11836;DHT22;5977;51.972;7.640;2023-02-15T02:11:38;16.70;68.40
11836;DHT22;5977;51.972;7.640;2023-02-15T02:14:07;16.70;68.40
11836;DHT22;5977;51.972;7.640;2023-02-15T02:16:42;16.70;68.50
11836;DHT22;5977;51.972;7.640;2023-02-15T02:22:44;16.70;68.40
11836;DHT22;5977;51.972;7.640;2023-02-15T02:28:43;16.70;68.50
11836;DHT22;5977;51.972;7.640;2023-02-15T02:31:28;16.70;68.60
11836;DHT22;5977;51.972;7.640;2023-02-15T02:34:03;16.70;68.60
11836;DHT22;5977;51.972;7.640;2023-02-15T02:36:37;16.70;68.60
11836;DHT22;5977;51.972;7.640;2023-02-15T02:39:19;16.70;68.70
11836;DHT22;5977;51.972;7.640;2023-02-15T02:41:56;16.70;68.70
11836;DHT22;5977;51.972;7.640;2023-02-15T02:44:30;16.70;68.70
11836;DHT22;5977;51.972;7.640;2023-02-15T02:47:03;16.70;68.70
11836;DHT22;5977;51.972;7.640;2023-02-15T02:49:34;16.70;68.60
11836;DHT22;5977;51.972;7.640;2023-02-15T02:52:05;16.70;68.70
11836;DHT22;5977;51.972;7.640;2023-02-15T02:54:34;16.70;68.70
11836;DHT22;5977;51.972;7.640;2023-02-15T02:57:05;16.70;68.70
11836;DHT22;5977;51.972;7.640;2023-02-15T02:59:39;16.70;68.70
11836;DHT22;5977;51.972;7.640;2023-02-15T03:02:14;16.70;68.80
11836;DHT22;5977;51.972;7.640;2023-02-15T03:04:48;16.70;68.70
11836;DHT22;5977;51.972;7.640;2023-02-15T03:07:26;16.70;68.70
11836;DHT22;5977;51.972;7.640;2023-02-15T03:09:57;16.70;68.90
11836;DHT22;5977;51.972;7.640;2023-02-15T03:12:29;16.60;68.80
11836;DHT22;5977;51.972;7.640;2023-02-15T03:15:02;16.70;69.00
11836;DHT22;5977;51.972;7.640;2023-02-15T03:17:32;16.60;69.10
11836;DHT22;5977;51.972;7.640;2023-02-15T03:20:06;16.70;69.10
11836;DHT22;5977;51.972;7.640;2023-02-15T03:22:37;16.70;69.20
11836;DHT22;5977;51.972;7.640;2023-02-15T03:25:12;16.70;69.00
11836;DHT22;5977;51.972;7.640;2023-02-15T03:27:45;16.70;69.20
11836;DHT22;5977;51.972;7.640;2023-02-15T03:30:15;16.70;68.90
11836;DHT22;5977;51.972;7.640;2023-02-15T03:32:47;16.60;69.20
11836;DHT22;5977;51.972;7.640;2023-02-15T03:35:19;16.70;69.50
11836;DHT22;5977;51.972;7.640;2023-02-15T03:37:51;16.70;69.40
11836;DHT22;5977;51.972;7.640;2023-02-15T03:40:23;16.70;69.20
11836;DHT22;5977;51.972;7.640;2023-02-15T03:43:12;16.70;69.40
11836;DHT22;5977;51.972;7.640;2023-02-15T03:45:46;16.60;69.30
11836;DHT22;5977;51.972;7.640;2023-02-15T03:48:25;16.60;69.30
11836;DHT22;5977;51.972;7.640;2023-02-15T03:50:57;16.60;69.00
11836;DHT22;5977;51.972;7.640;2023-02-15T03:53:45;16.70;69.10
11836;DHT22;5977;51.972;7.640;2023-02-15T03:56:14;16.60;69.10
11836;DHT22;5977;51.972;7.640;2023-02-15T03:58:41;16.60;69.30
11836;DHT22;5977;51.972;7.640;2023-02-15T04:01:32;16.60;69.30
11836;DHT22;5977;51.972;7.640;2023-02-15T04:04:26;16.60;69.10
11836;DHT22;5977;51.972;7.640;2023-02-15T04:06:57;16.60;69.10
11836;DHT22;5977;51.972;7.640;2023-02-15T04:09:25;16.60;69.20
11836;DHT22;5977;51.972;7.640;2023-02-15T04:12:10;16.60;69.30
11836;DHT22;5977;51.972;7.640;2023-02-15T04:14:38;16.60;69.30
11836;DHT22;5977;51.972;7.640;2023-02-15T04:17:23;16.60;69.20
11836;DHT22;5977;51.972;7.640;2023-02-15T04:19:51;16.60;68.60
11836;DHT22;5977;51.972;7.640;2023-02-15T04:22:37;16.50;68.00
11836;DHT22;5977;51.972;7.640;2023-02-15T04:25:23;16.50;67.10
11836;DHT22;5977;51.972;7.640;2023-02-15T04:27:52;16.50;66.60
11836;DHT22;5977;51.972;7.640;2023-02-15T04:30:23;16.50;65.90
11836;DHT22;5977;51.972;7.640;2023-02-15T04:32:51;16.50;65.50
11836;DHT22;5977;51.972;7.640;2023-02-15T04:35:19;16.50;65.00
11836;DHT22;5977;51.972;7.640;2023-02-15T04:37:48;16.40;64.40
11836;DHT22;5977;51.972;7.640;2023-02-15T04:40:16;16.40;63.70
11836;DHT22;5977;51.972;7.640;2023-02-15T04:42:47;16.40;63.50
11836;DHT22;5977;51.972;7.640;2023-02-15T04:45:15;16.40;63.00
11836;DHT22;5977;51.972;7.640;2023-02-15T04:47:44;16.40;62.70
11836;DHT22;5977;51.972;7.640;2023-02-15T04:50:12;16.40;62.40
11836;DHT22;5977;51.972;7.640;2023-02-15T04:52:39;16.30;61.80
11836;DHT22;5977;51.972;7.640;2023-02-15T04:55:08;16.30;61.90
11836;DHT22;5977;51.972;7.640;2023-02-15T04:57:36;16.30;61.50
11836;DHT22;5977;51.972;7.640;2023-02-15T05:00:05;16.40;61.20
11836;DHT22;5977;51.972;7.640;2023-02-15T05:02:35;16.30;60.40
11836;DHT22;5977;51.972;7.640;2023-02-15T05:05:02;16.30;60.00
11836;DHT22;5977;51.972;7.640;2023-02-15T05:07:30;16.40;60.00
11836;DHT22;5977;51.972;7.640;2023-02-15T05:09:58;16.40;59.80
11836;DHT22;5977;51.972;7.640;2023-02-15T05:12:27;16.40;60.20
11836;DHT22;5977;51.972;7.640;2023-02-15T05:14:55;16.40;59.30
11836;DHT22;5977;51.972;7.640;2023-02-15T05:17:23;16.40;59.10
11836;DHT22;5977;51.972;7.640;2023-02-15T05:19:51;16.40;59.00
11836;DHT22;5977;51.972;7.640;2023-02-15T05:22:19;16.30;58.80
11836;DHT22;5977;51.972;7.640;2023-02-15T05:24:47;16.30;58.70
11836;DHT22;5977;51.972;7.640;2023-02-15T05:27:34;16.30;58.70
11836;DHT22;5977;51.972;7.640;2023-02-15T05:30:19;16.30;58.50
11836;DHT22;5977;51.972;7.640;2023-02-15T05:32:47;16.30;58.20
11836;DHT22;5977;51.972;7.640;2023-02-15T05:35:17;16.30;58.20
11836;DHT22;5977;51.972;7.640;2023-02-15T05:37:45;16.30;58.10
11836;DHT22;5977;51.972;7.640;2023-02-15T05:40:13;16.30;58.00
11836;DHT22;5977;51.972;7.640;2023-02-15T05:42:42;16.20;57.90
11836;DHT22;5977;51.972;7.640;2023-02-15T05:45:10;16.30;57.70
11836;DHT22;5977;51.972;7.640;2023-02-15T05:47:38;16.20;57.60
11836;DHT22;5977;51.972;7.640;2023-02-15T05:50:06;16.30;57.60
11836;DHT22;5977;51.972;7.640;2023-02-15T05:52:34;16.20;57.50
11836;DHT22;5977;51.972;7.640;2023-02-15T05:55:03;16.20;57.30
11836;DHT22;5977;51.972;7.640;2023-02-15T05:57:30;16.20;57.20
11836;DHT22;5977;51.972;7.640;2023-02-15T06:00:00;16.20;57.20
11836;DHT22;5977;51.972;7.640;2023-02-15T06:02:37;16.20;57.00
11836;DHT22;5977;51.972;7.640;2023-02-15T06:05:06;16.20;56.90
11836;DHT22;5977;51.972;7.640;2023-02-15T06:07:34;16.20;56.80
11836;DHT22;5977;51.972;7.640;2023-02-15T06:10:02;16.20;56.80
11836;DHT22;5977;51.972;7.640;2023-02-15T06:12:30;16.20;56.90
11836;DHT22;5977;51.972;7.640;2023-02-15T06:14:59;16.20;56.70
11836;DHT22;5977;51.972;7.640;2023-02-15T06:17:27;16.20;56.90
11836;DHT22;5977;51.972;7.640;2023-02-15T06:19:55;16.20;57.00
11836;DHT22;5977;51.972;7.640;2023-02-15T06:22:23;16.20;57.00
11836;DHT22;5977;51.972;7.640;2023-02-15T06:24:51;16.20;57.60
11836;DHT22;5977;51.972;7.640;2023-02-15T06:27:19;16.20;57.40
11836;DHT22;5977;51.972;7.640;2023-02-15T06:29:46;16.20;57.50
11836;DHT22;5977;51.972;7.640;2023-02-15T06:32:15;16.20;57.50
11836;DHT22;5977;51.972;7.640;2023-02-15T06:34:43;16.20;57.70
11836;DHT22;5977;51.972;7.640;2023-02-15T06:37:14;16.20;57.80
11836;DHT22;5977;51.972;7.640;2023-02-15T06:39:42;16.20;57.90
11836;DHT22;5977;51.972;7.640;2023-02-15T06:42:10;16.20;57.50
11836;DHT22;5977;51.972;7.640;2023-02-15T06:44:38;16.20;57.20
11836;DHT22;5977;51.972;7.640;2023-02-15T06:47:06;16.20;57.70
11836;DHT22;5977;51.972;7.640;2023-02-15T06:49:35;16.20;57.70
11836;DHT22;5977;51.972;7.640;2023-02-15T06:52:03;16.10;57.40
11836;DHT22;5977;51.972;7.640;2023-02-15T06:54:31;16.10;57.40
11836;DHT22;5977;51.972;7.640;2023-02-15T06:56:59;16.10;57.00
11836;DHT22;5977;51.972;7.640;2023-02-15T06:59:27;16.10;57.20
11836;DHT22;5977;51.972;7.640;2023-02-15T07:01:55;16.10;56.90
11836;DHT22;5977;51.972;7.640;2023-02-15T07:04:23;16.10;57.20
11836;DHT22;5977;51.972;7.640;2023-02-15T07:06:52;16.10;56.80
11836;DHT22;5977;51.972;7.640;2023-02-15T07:09:20;16.10;56.80
11836;DHT22;5977;51.972;7.640;2023-02-15T07:11:48;16.10;56.20
11836;DHT22;5977;51.972;7.640;2023-02-15T07:14:35;16.10;56.20
11836;DHT22;5977;51.972;7.640;2023-02-15T07:17:03;16.10;56.40
11836;DHT22;5977;51.972;7.640;2023-02-15T07:19:40;16.10;56.20
11836;DHT22;5977;51.972;7.640;2023-02-15T07:22:09;16.10;56.10
11836;DHT22;5977;51.972;7.640;2023-02-15T07:24:37;16.10;55.90
11836;DHT22;5977;51.972;7.640;2023-02-15T07:27:06;16.10;55.90
11836;DHT22;5977;51.972;7.640;2023-02-15T07:29:34;16.10;55.80
11836;DHT22;5977;51.972;7.640;2023-02-15T07:32:02;16.10;55.90
11836;DHT22;5977;51.972;7.640;2023-02-15T07:34:30;16.10;56.00
11836;DHT22;5977;51.972;7.640;2023-02-15T07:36:58;16.10;55.70
11836;DHT22;5977;51.972;7.640;2023-02-15T07:39:27;16.10;56.20
11836;DHT22;5977;51.972;7.640;2023-02-15T07:41:55;16.10;56.10
11836;DHT22;5977;51.972;7.640;2023-02-15T07:44:29;16.10;56.30
11836;DHT22;5977;51.972;7.640;2023-02-15T07:46:57;16.10;56.30
11836;DHT22;5977;51.972;7.640;2023-02-15T07:49:25;16.10;56.20
11836;DHT22;5977;51.972;7.640;2023-02-15T07:51:53;16.10;56.50
11836;DHT22;5977;51.972;7.640;2023-02-15T07:54:21;16.10;56.20
11836;DHT22;5977;51.972;7.640;2023-02-15T07:56:50;16.10;56.70
11836;DHT22;5977;51.972;7.640;2023-02-15T07:59:17;16.10;56.30
11836;DHT22;5977;51.972;7.640;2023-02-15T08:01:46;16.20;56.20
11836;DHT22;5977;51.972;7.640;2023-02-15T08:04:14;16.10;56.70
11836;DHT22;5977;51.972;7.640;2023-02-15T08:06:42;16.20;57.50
11836;DHT22;5977;51.972;7.640;2023-02-15T08:09:11;16.20;57.00
11836;DHT22;5977;51.972;7.640;2023-02-15T08:11:39;16.20;57.10
11836;DHT22;5977;51.972;7.640;2023-02-15T08:14:09;16.20;57.50
11836;DHT22;5977;51.972;7.640;2023-02-15T08:16:39;16.30;57.70
11836;DHT22;5977;51.972;7.640;2023-02-15T08:19:09;16.40;57.60
11836;DHT22;5977;51.972;7.640;2023-02-15T08:21:39;16.60;57.70
11836;DHT22;5977;51.972;7.640;2023-02-15T08:24:09;16.80;57.30
11836;DHT22;5977;51.972;7.640;2023-02-15T08:26:38;17.30;57.50
11836;DHT22;5977;51.972;7.640;2023-02-15T08:29:09;17.80;56.70
11836;DHT22;5977;51.972;7.640;2023-02-15T08:31:37;18.20;56.10
11836;DHT22;5977;51.972;7.640;2023-02-15T08:34:08;18.50;56.00
11836;DHT22;5977;51.972;7.640;2023-02-15T08:36:36;18.90;55.90
11836;DHT22;5977;51.972;7.640;2023-02-15T08:39:05;18.90;55.40
11836;DHT22;5977;51.972;7.640;2023-02-15T08:41:35;18.40;56.00
11836;DHT22;5977;51.972;7.640;2023-02-15T08:44:06;18.20;56.30
11836;DHT22;5977;51.972;7.640;2023-02-15T08:46:37;18.00;56.90
11836;DHT22;5977;51.972;7.640;2023-02-15T08:49:05;17.70;57.80
11836;DHT22;5977;51.972;7.640;2023-02-15T08:51:34;17.70;56.90
11836;DHT22;5977;51.972;7.640;2023-02-15T08:54:06;17.70;57.70
11836;DHT22;5977;51.972;7.640;2023-02-15T08:56:35;17.70;57.70
11836;DHT22;5977;51.972;7.640;2023-02-15T08:59:04;17.70;57.90
11836;DHT22;5977;51.972;7.640;2023-02-15T09:01:35;17.70;57.30
11836;DHT22;5977;51.972;7.640;2023-02-15T09:04:05;17.90;58.20
11836;DHT22;5977;51.972;7.640;2023-02-15T09:06:35;18.00;58.10
11836;DHT22;5977;51.972;7.640;2023-02-15T09:09:04;18.00;57.80
11836;DHT22;5977;51.972;7.640;2023-02-15T09:11:35;18.10;57.10
11836;DHT22;5977;51.972;7.640;2023-02-15T09:14:04;18.10;56.20
11836;DHT22;5977;51.972;7.640;2023-02-15T09:16:37;18.20;55.80
11836;DHT22;5977;51.972;7.640;2023-02-15T09:19:05;18.20;55.50
11836;DHT22;5977;51.972;7.640;2023-02-15T09:21:35;18.20;55.40
11836;DHT22;5977;51.972;7.640;2023-02-15T09:24:06;18.30;55.00
11836;DHT22;5977;51.972;7.640;2023-02-15T09:26:36;18.30;54.90
11836;DHT22;5977;51.972;7.640;2023-02-15T09:29:04;18.30;55.00
11836;DHT22;5977;51.972;7.640;2023-02-15T09:31:34;18.30;55.00
11836;DHT22;5977;51.972;7.640;2023-02-15T09:34:05;18.30;55.00
11836;DHT22;5977;51.972;7.640;2023-02-15T09:36:34;18.20;55.10
11836;DHT22;5977;51.972;7.640;2023-02-15T09:39:07;18.20;55.20
11836;DHT22;5977;51.972;7.640;2023-02-15T09:44:53;18.10;55.50
11836;DHT22;5977;51.972;7.640;2023-02-15T09:47:38;18.10;55.70
11836;DHT22;5977;51.972;7.640;2023-02-15T09:50:14;18.10;55.80
11836;DHT22;5977;51.972;7.640;2023-02-15T09:53:00;18.00;55.80
11836;DHT22;5977;51.972;7.640;2023-02-15T09:55:41;18.00;55.90
11836;DHT22;5977;51.972;7.640;2023-02-15T09:58:19;18.00;56.10
11836;DHT22;5977;51.972;7.640;2023-02-15T10:00:56;18.00;56.20
11836;DHT22;5977;51.972;7.640;2023-02-15T10:03:42;17.90;56.30
11836;DHT22;5977;51.972;7.640;2023-02-15T10:06:32;17.90;56.40
11836;DHT22;5977;51.972;7.640;2023-02-15T10:09:15;17.80;56.50
11836;DHT22;5977;51.972;7.640;2023-02-15T10:11:57;17.80;56.60
11836;DHT22;5977;51.972;7.640;2023-02-15T10:14:47;17.80;56.70
11836;DHT22;5977;51.972;7.640;2023-02-15T10:17:29;17.70;56.90
11836;DHT22;5977;51.972;7.640;2023-02-15T10:20:08;17.90;56.90
11836;DHT22;5977;51.972;7.640;2023-02-15T10:22:50;18.20;56.60
11836;DHT22;5977;51.972;7.640;2023-02-15T10:25:31;18.40;56.20
11836;DHT22;5977;51.972;7.640;2023-02-15T10:28:05;18.50;55.80
11836;DHT22;5977;51.972;7.640;2023-02-15T10:30:41;18.70;55.60
11836;DHT22;5977;51.972;7.640;2023-02-15T10:33:20;18.80;55.40
11836;DHT22;5977;51.972;7.640;2023-02-15T10:35:58;18.90;55.00
11836;DHT22;5977;51.972;7.640;2023-02-15T10:38:33;19.00;54.70
11836;DHT22;5977;51.972;7.640;2023-02-15T10:41:11;19.10;54.30
11836;DHT22;5977;51.972;7.640;2023-02-15T10:43:58;19.30;54.00
11836;DHT22;5977;51.972;7.640;2023-02-15T10:46:42;19.50;53.60
11836;DHT22;5977;51.972;7.640;2023-02-15T10:49:32;19.70;53.30
11836;DHT22;5977;51.972;7.640;2023-02-15T10:52:14;19.80;53.10
11836;DHT22;5977;51.972;7.640;2023-02-15T10:54:49;19.80;52.90
11836;DHT22;5977;51.972;7.640;2023-02-15T10:57:24;19.90;52.90
11836;DHT22;5977;51.972;7.640;2023-02-15T11:00:05;20.00;52.90
11836;DHT22;5977;51.972;7.640;2023-02-15T11:02:50;20.00;52.70
11836;DHT22;5977;51.972;7.640;2023-02-15T11:05:36;20.10;52.80
11836;DHT22;5977;51.972;7.640;2023-02-15T11:08:08;20.00;52.80
11836;DHT22;5977;51.972;7.640;2023-02-15T11:10:41;20.00;52.90
11836;DHT22;5977;51.972;7.640;2023-02-15T11:13:13;20.00;53.00
11836;DHT22;5977;51.972;7.640;2023-02-15T11:15:44;19.90;53.20
11836;DHT22;5977;51.972;7.640;2023-02-15T11:18:19;19.90;53.40
11836;DHT22;5977;51.972;7.640;2023-02-15T11:20:53;19.80;53.60
11836;DHT22;5977;51.972;7.640;2023-02-15T11:23:23;19.70;53.80
11836;DHT22;5977;51.972;7.640;2023-02-15T11:25:56;19.60;54.00
11836;DHT22;5977;51.972;7.640;2023-02-15T11:28:30;19.40;54.40
11836;DHT22;5977;51.972;7.640;2023-02-15T11:31:02;19.30;54.50
11836;DHT22;5977;51.972;7.640;2023-02-15T11:33:41;19.30;54.80
11836;DHT22;5977;51.972;7.640;2023-02-15T11:36:13;19.30;54.80
11836;DHT22;5977;51.972;7.640;2023-02-15T11:38:44;19.20;54.90
11836;DHT22;5977;51.972;7.640;2023-02-15T11:41:18;19.20;55.10
11836;DHT22;5977;51.972;7.640;2023-02-15T11:43:54;19.10;55.10
11836;DHT22;5977;51.972;7.640;2023-02-15T11:46:24;18.90;55.30
11836;DHT22;5977;51.972;7.640;2023-02-15T11:48:52;18.90;55.60
11836;DHT22;5977;51.972;7.640;2023-02-15T11:51:21;18.70;55.80
11836;DHT22;5977;51.972;7.640;2023-02-15T11:53:51;18.70;56.00
11836;DHT22;5977;51.972;7.640;2023-02-15T11:56:22;18.70;56.10
11836;DHT22;5977;51.972;7.640;2023-02-15T11:58:54;18.60;56.10
11836;DHT22;5977;51.972;7.640;2023-02-15T12:01:28;18.60;56.20
11836;DHT22;5977;51.972;7.640;2023-02-15T12:04:02;18.60;56.30
11836;DHT22;5977;51.972;7.640;2023-02-15T12:06:34;18.50;56.40
11836;DHT22;5977;51.972;7.640;2023-02-15T12:09:10;18.50;56.50
11836;DHT22;5977;51.972;7.640;2023-02-15T12:11:43;18.40;56.50
11836;DHT22;5977;51.972;7.640;2023-02-15T12:14:12;18.40;56.60
11836;DHT22;5977;51.972;7.640;2023-02-15T12:16:44;18.40;56.70
11836;DHT22;5977;51.972;7.640;2023-02-15T12:19:27;18.30;56.70
11836;DHT22;5977;51.972;7.640;2023-02-15T12:21:57;18.30;56.90
11836;DHT22;5977;51.972;7.640;2023-02-15T12:24:28;18.30;57.00
11836;DHT22;5977;51.972;7.640;2023-02-15T12:27:01;18.30;57.20
11836;DHT22;5977;51.972;7.640;2023-02-15T12:29:32;18.20;57.20
11836;DHT22;5977;51.972;7.640;2023-02-15T12:32:03;18.20;57.40
11836;DHT22;5977;51.972;7.640;2023-02-15T12:34:36;18.20;57.50
11836;DHT22;5977;51.972;7.640;2023-02-15T12:37:09;18.20;57.60
11836;DHT22;5977;51.972;7.640;2023-02-15T12:39:51;18.20;57.70
11836;DHT22;5977;51.972;7.640;2023-02-15T12:42:22;18.20;57.80
11836;DHT22;5977;51.972;7.640;2023-02-15T12:44:56;18.20;58.00
11836;DHT22;5977;51.972;7.640;2023-02-15T12:47:25;18.10;57.70
11836;DHT22;5977;51.972;7.640;2023-02-15T12:50:21;18.10;57.60
11836;DHT22;5977;51.972;7.640;2023-02-15T12:52:50;18.10;57.70
11836;DHT22;5977;51.972;7.640;2023-02-15T12:55:22;18.00;58.30
11836;DHT22;5977;51.972;7.640;2023-02-15T12:58:05;18.00;57.80
11836;DHT22;5977;51.972;7.640;2023-02-15T13:00:33;18.00;57.90
11836;DHT22;5977;51.972;7.640;2023-02-15T13:03:02;18.00;58.00
11836;DHT22;5977;51.972;7.640;2023-02-15T13:05:36;18.00;58.00
11836;DHT22;5977;51.972;7.640;2023-02-15T13:08:10;18.00;58.20
11836;DHT22;5977;51.972;7.640;2023-02-15T13:10:41;17.90;58.20
11836;DHT22;5977;51.972;7.640;2023-02-15T13:13:18;17.90;58.90
11836;DHT22;5977;51.972;7.640;2023-02-15T13:15:50;17.90;58.40
11836;DHT22;5977;51.972;7.640;2023-02-15T13:18:27;17.90;58.50
11836;DHT22;5977;51.972;7.640;2023-02-15T13:20:56;17.90;58.60
11836;DHT22;5977;51.972;7.640;2023-02-15T13:23:27;17.90;58.60
11836;DHT22;5977;51.972;7.640;2023-02-15T13:25:58;17.80;58.60
11836;DHT22;5977;51.972;7.640;2023-02-15T13:28:38;17.80;58.70
11836;DHT22;5977;51.972;7.640;2023-02-15T13:31:12;17.80;58.70
11836;DHT22;5977;51.972;7.640;2023-02-15T13:33:44;17.80;58.70
11836;DHT22;5977;51.972;7.640;2023-02-15T13:36:20;17.80;58.80
11836;DHT22;5977;51.972;7.640;2023-02-15T13:39:03;17.80;58.80
11836;DHT22;5977;51.972;7.640;2023-02-15T13:41:33;17.80;58.80
11836;DHT22;5977;51.972;7.640;2023-02-15T13:44:11;17.80;58.90
11836;DHT22;5977;51.972;7.640;2023-02-15T13:46:51;17.80;58.90
11836;DHT22;5977;51.972;7.640;2023-02-15T13:49:36;17.80;58.90
11836;DHT22;5977;51.972;7.640;2023-02-15T13:52:16;17.80;58.90
11836;DHT22;5977;51.972;7.640;2023-02-15T13:55:06;17.80;59.00
11836;DHT22;5977;51.972;7.640;2023-02-15T13:57:47;17.70;59.00
11836;DHT22;5977;51.972;7.640;2023-02-15T14:00:25;17.70;59.00
11836;DHT22;5977;51.972;7.640;2023-02-15T14:03:24;17.70;59.00
11836;DHT22;5977;51.972;7.640;2023-02-15T14:06:24;17.70;59.10
11836;DHT22;5977;51.972;7.640;2023-02-15T14:09:03;17.70;59.10
11836;DHT22;5977;51.972;7.640;2023-02-15T14:11:39;17.70;59.20
11836;DHT22;5977;51.972;7.640;2023-02-15T14:17:22;17.70;59.20
11836;DHT22;5977;51.972;7.640;2023-02-15T14:19:54;17.70;59.20
11836;DHT22;5977;51.972;7.640;2023-02-15T14:22:30;17.70;59.30
11836;DHT22;5977;51.972;7.640;2023-02-15T14:25:16;17.70;59.30
11836;DHT22;5977;51.972;7.640;2023-02-15T14:27:54;17.70;59.40
11836;DHT22;5977;51.972;7.640;2023-02-15T14:30:26;17.70;59.40
11836;DHT22;5977;51.972;7.640;2023-02-15T14:33:01;17.70;59.80
11836;DHT22;5977;51.972;7.640;2023-02-15T14:35:30;17.70;59.80
11836;DHT22;5977;51.972;7.640;2023-02-15T14:38:02;17.70;59.90
11836;DHT22;5977;51.972;7.640;2023-02-15T14:40:38;17.70;60.00
11836;DHT22;5977;51.972;7.640;2023-02-15T14:43:33;17.70;59.90
11836;DHT22;5977;51.972;7.640;2023-02-15T14:46:10;17.70;59.90
11836;DHT22;5977;51.972;7.640;2023-02-15T14:48:45;17.60;59.80
11836;DHT22;5977;51.972;7.640;2023-02-15T14:57:36;17.60;60.10
11836;DHT22;5977;51.972;7.640;2023-02-15T15:00:33;17.60;60.10
11836;DHT22;5977;51.972;7.640;2023-02-15T15:03:11;17.60;60.20
11836;DHT22;5977;51.972;7.640;2023-02-15T15:05:50;17.60;60.30
11836;DHT22;5977;51.972;7.640;2023-02-15T15:08:26;17.60;60.40
11836;DHT22;5977;51.972;7.640;2023-02-15T15:10:56;17.60;60.50
11836;DHT22;5977;51.972;7.640;2023-02-15T15:13:52;17.60;60.60
11836;DHT22;5977;51.972;7.640;2023-02-15T15:16:27;17.60;60.60
11836;DHT22;5977;51.972;7.640;2023-02-15T15:18:56;17.60;60.80
11836;DHT22;5977;51.972;7.640;2023-02-15T15:21:57;17.60;60.80
11836;DHT22;5977;51.972;7.640;2023-02-15T15:24:50;17.50;60.80
11836;DHT22;5977;51.972;7.640;2023-02-15T15:27:43;17.50;61.00
11836;DHT22;5977;51.972;7.640;2023-02-15T15:30:49;17.50;61.00
11836;DHT22;5977;51.972;7.640;2023-02-15T15:37:11;17.50;61.20
11836;DHT22;5977;51.972;7.640;2023-02-15T15:46:43;17.50;61.40
11836;DHT22;5977;51.972;7.640;2023-02-15T15:49:16;17.50;61.50
11836;DHT22;5977;51.972;7.640;2023-02-15T15:51:48;17.50;61.50
11836;DHT22;5977;51.972;7.640;2023-02-15T15:54:20;17.50;61.50
11836;DHT22;5977;51.972;7.640;2023-02-15T15:56:51;17.50;61.60
11836;DHT22;5977;51.972;7.640;2023-02-15T15:59:23;17.50;61.70
11836;DHT22;5977;51.972;7.640;2023-02-15T16:01:52;17.40;61.60
11836;DHT22;5977;51.972;7.640;2023-02-15T16:04:26;17.40;61.70
11836;DHT22;5977;51.972;7.640;2023-02-15T16:06:55;17.40;61.70
11836;DHT22;5977;51.972;7.640;2023-02-15T16:09:26;17.40;61.80
11836;DHT22;5977;51.972;7.640;2023-02-15T16:11:56;17.40;61.80
11836;DHT22;5977;51.972;7.640;2023-02-15T16:14:30;17.40;61.90
11836;DHT22;5977;51.972;7.640;2023-02-15T16:17:01;17.40;61.90
11836;DHT22;5977;51.972;7.640;2023-02-15T16:19:33;17.40;62.70
11836;DHT22;5977;51.972;7.640;2023-02-15T16:22:03;17.40;62.00
11836;DHT22;5977;51.972;7.640;2023-02-15T16:24:41;17.40;62.10
11836;DHT22;5977;51.972;7.640;2023-02-15T16:27:34;17.40;62.20
11836;DHT22;5977;51.972;7.640;2023-02-15T16:30:23;17.30;62.10
11836;DHT22;5977;51.972;7.640;2023-02-15T16:33:02;17.40;62.20
11836;DHT22;5977;51.972;7.640;2023-02-15T16:35:30;17.30;62.20
11836;DHT22;5977;51.972;7.640;2023-02-15T16:37:58;17.30;62.30
11836;DHT22;5977;51.972;7.640;2023-02-15T16:40:50;17.30;62.30
11836;DHT22;5977;51.972;7.640;2023-02-15T16:43:23;17.30;62.40
11836;DHT22;5977;51.972;7.640;2023-02-15T16:45:58;17.30;62.40
11836;DHT22;5977;51.972;7.640;2023-02-15T16:48:30;17.30;62.50
11836;DHT22;5977;51.972;7.640;2023-02-15T16:50:59;17.30;62.50
11836;DHT22;5977;51.972;7.640;2023-02-15T16:53:28;17.30;62.60